Time,TemperatureF,DewpointF,PressureIn,WindDirection,WindDirectionDegrees,WindSpeedMPH,WindSpeedGustMPH,Humidity,HourlyPrecipIn,Conditions,Clouds,dailyrainin,SoftwareType,DateUTC
2014-01-03 00:01:00,52.4,34.8,30.12,NNE,13,1.0,4.0,51,0.00,,,0.00,Weather View 32 v70,2014-01-03 08:01:00,
2014-01-03 00:07:00,52.4,34.8,30.11,NNE,13,1.0,3.0,51,0.00,,,0.00,Weather View 32 v70,2014-01-03 08:07:00,
2014-01-03 00:12:00,52.5,34.9,30.11,NNE,13,1.0,3.0,51,0.00,,,0.00,Weather View 32 v70,2014-01-03 08:12:00,
2014-01-03 00:17:00,52.3,35.6,30.11,NNE,13,1.0,3.0,53,0.00,,,0.00,Weather View 32 v70,2014-01-03 08:17:00,
2014-01-03 00:22:00,51.6,35.9,30.11,NNE,13,1.0,3.0,55,0.00,,,0.00,Weather View 32 v70,2014-01-03 08:22:00,
2014-01-03 00:27:00,50.9,35.7,30.10,NNE,25,1.0,3.0,56,0.00,,,0.00,Weather View 32 v70,2014-01-03 08:27:00,
2014-01-03 00:32:00,50.2,36.4,30.10,NNE,25,1.0,3.0,59,0.00,,,0.00,Weather View 32 v70,2014-01-03 08:32:00,
2014-01-03 00:37:00,50.0,35.8,30.10,NNE,26,1.0,3.0,58,0.00,,,0.00,Weather View 32 v70,2014-01-03 08:37:00,
2014-01-03 00:42:00,50.3,35.2,30.10,NNE,26,0.0,3.0,56,0.00,,,0.00,Weather View 32 v70,2014-01-03 08:42:00,
2014-01-03 00:47:00,50.8,35.2,30.10,NNE,26,0.0,2.0,55,0.00,,,0.00,Weather View 32 v70,2014-01-03 08:47:00,
2014-01-03 00:52:00,51.0,35.8,30.10,NNE,25,0.0,2.0,56,0.00,,,0.00,Weather View 32 v70,2014-01-03 08:52:00,
2014-01-03 00:57:00,50.8,35.6,30.10,NNE,25,0.0,2.0,56,0.00,,,0.00,Weather View 32 v70,2014-01-03 08:57:00,
2014-01-03 01:02:00,50.7,36.0,30.10,NNE,25,1.0,2.0,57,0.00,,,0.00,Weather View 32 v70,2014-01-03 09:02:00,
2014-01-03 01:07:00,50.5,36.2,30.10,NNE,26,0.0,2.0,58,0.00,,,0.00,Weather View 32 v70,2014-01-03 09:07:00,
2014-01-03 01:12:00,50.3,36.1,30.11,NNE,25,0.0,2.0,58,0.00,,,0.00,Weather View 32 v70,2014-01-03 09:12:00,
2014-01-03 01:17:00,50.1,36.3,30.11,NNE,26,0.0,2.0,59,0.00,,,0.00,Weather View 32 v70,2014-01-03 09:17:00,
2014-01-03 01:22:00,49.6,36.7,30.11,NNE,30,1.0,2.0,61,0.00,,,0.00,Weather View 32 v70,2014-01-03 09:22:00,
2014-01-03 01:27:00,48.7,36.2,30.10,NNE,30,1.0,2.0,62,0.00,,,0.00,Weather View 32 v70,2014-01-03 09:27:00,
2014-01-03 01:32:00,48.0,36.0,30.11,NNE,30,1.0,2.0,63,0.00,,,0.00,Weather View 32 v70,2014-01-03 09:32:00,
2014-01-03 01:37:00,47.9,35.5,30.11,NNE,30,1.0,2.0,62,0.00,,,0.00,Weather View 32 v70,2014-01-03 09:37:00,
2014-01-03 01:42:00,48.1,35.3,30.11,NNE,30,1.0,2.0,61,0.00,,,0.00,Weather View 32 v70,2014-01-03 09:42:00,
2014-01-03 01:47:00,48.2,34.9,30.11,NNE,30,1.0,2.0,60,0.00,,,0.00,Weather View 32 v70,2014-01-03 09:47:00,
2014-01-03 01:52:00,48.4,34.7,30.11,NNE,30,1.0,2.0,59,0.00,,,0.00,Weather View 32 v70,2014-01-03 09:52:00,
2014-01-03 01:57:00,48.4,35.5,30.11,NNE,30,1.0,2.0,61,0.00,,,0.00,Weather View 32 v70,2014-01-03 09:57:00,
2014-01-03 02:02:00,48.1,35.7,30.11,NNE,30,1.0,2.0,62,0.00,,,0.00,Weather View 32 v70,2014-01-03 10:02:00,
2014-01-03 02:07:00,47.5,35.9,30.11,NNE,30,1.0,2.0,64,0.00,,,0.00,Weather View 32 v70,2014-01-03 10:07:00,
2014-01-03 02:12:00,46.6,36.2,30.11,NNE,32,2.0,2.0,67,0.00,,,0.00,Weather View 32 v70,2014-01-03 10:12:00,
2014-01-03 02:17:00,46.1,35.7,30.12,NNE,32,1.0,2.0,67,0.00,,,0.00,Weather View 32 v70,2014-01-03 10:17:00,
2014-01-03 02:22:00,46.1,35.7,30.12,NNE,32,1.0,2.0,67,0.00,,,0.00,Weather View 32 v70,2014-01-03 10:22:00,
2014-01-03 02:27:00,46.3,35.2,30.12,NNE,32,1.0,2.0,65,0.00,,,0.00,Weather View 32 v70,2014-01-03 10:27:00,
2014-01-03 02:32:00,46.7,35.2,30.12,NNE,33,1.0,2.0,64,0.00,,,0.00,Weather View 32 v70,2014-01-03 10:32:00,
2014-01-03 02:37:00,47.2,34.8,30.12,NNE,32,1.0,2.0,62,0.00,,,0.00,Weather View 32 v70,2014-01-03 10:37:00,
2014-01-03 02:42:00,47.5,35.9,30.12,NNE,32,1.0,2.0,64,0.00,,,0.00,Weather View 32 v70,2014-01-03 10:42:00,
2014-01-03 02:47:00,46.9,35.7,30.12,NNE,33,1.0,2.0,65,0.00,,,0.00,Weather View 32 v70,2014-01-03 10:47:00,
2014-01-03 02:52:00,46.5,35.4,30.12,NNE,33,1.0,2.0,65,0.00,,,0.00,Weather View 32 v70,2014-01-03 10:52:00,
2014-01-03 02:57:00,46.4,35.3,30.12,NNE,33,2.0,2.0,65,0.00,,,0.00,Weather View 32 v70,2014-01-03 10:57:00,
2014-01-03 03:02:00,46.3,35.5,30.12,NNE,32,1.0,2.0,66,0.00,,,0.00,Weather View 32 v70,2014-01-03 11:02:00,
2014-01-03 03:07:00,46.5,35.4,30.12,NE,34,2.0,2.0,65,0.00,,,0.00,Weather View 32 v70,2014-01-03 11:07:00,
2014-01-03 03:12:00,47.2,35.2,30.12,NE,39,2.0,2.0,63,0.00,,,0.00,Weather View 32 v70,2014-01-03 11:12:00,
2014-01-03 03:17:00,47.7,35.3,30.12,NE,45,2.0,2.0,62,0.00,,,0.00,Weather View 32 v70,2014-01-03 11:17:00,
2014-01-03 03:22:00,47.8,35.4,30.12,NE,50,2.0,2.0,62,0.00,,,0.00,Weather View 32 v70,2014-01-03 11:22:00,
2014-01-03 03:27:00,48.3,34.6,30.12,NE,50,3.0,3.0,59,0.00,,,0.00,Weather View 32 v70,2014-01-03 11:27:00,
2014-01-03 03:32:00,48.4,34.7,30.11,NE,50,2.0,3.0,59,0.00,,,0.00,Weather View 32 v70,2014-01-03 11:32:00,
2014-01-03 03:37:00,48.6,34.5,30.11,NE,50,2.0,3.0,58,0.00,,,0.00,Weather View 32 v70,2014-01-03 11:37:00,
2014-01-03 03:42:00,48.9,33.9,30.12,NE,47,2.0,3.0,56,0.00,,,0.00,Weather View 32 v70,2014-01-03 11:42:00,
2014-01-03 03:47:00,49.0,34.0,30.11,NE,41,2.0,3.0,56,0.00,,,0.00,Weather View 32 v70,2014-01-03 11:47:00,
2014-01-03 03:52:00,49.1,33.6,30.11,NE,43,2.0,3.0,55,0.00,,,0.00,Weather View 32 v70,2014-01-03 11:52:00,
2014-01-03 03:57:00,48.9,33.9,30.11,NE,42,2.0,3.0,56,0.00,,,0.00,Weather View 32 v70,2014-01-03 11:57:00,
2014-01-03 04:02:00,48.8,33.3,30.11,NE,44,2.0,3.0,55,0.00,,,0.00,Weather View 32 v70,2014-01-03 12:02:00,
2014-01-03 04:07:00,48.8,33.3,30.11,NE,44,2.0,3.0,55,0.00,,,0.00,Weather View 32 v70,2014-01-03 12:07:00,
2014-01-03 04:12:00,49.0,33.5,30.11,NE,44,1.0,3.0,55,0.00,,,0.00,Weather View 32 v70,2014-01-03 12:12:00,
2014-01-03 04:17:00,49.1,33.6,30.11,NE,46,3.0,3.0,55,0.00,,,0.00,Weather View 32 v70,2014-01-03 12:17:00,
2014-01-03 04:22:00,48.9,33.4,30.10,NE,45,2.0,3.0,55,0.00,,,0.00,Weather View 32 v70,2014-01-03 12:22:00,
2014-01-03 04:27:00,48.9,33.4,30.10,NE,46,1.0,3.0,55,0.00,,,0.00,Weather View 32 v70,2014-01-03 12:27:00,
2014-01-03 04:32:00,48.9,33.4,30.10,NE,45,1.0,3.0,55,0.00,,,0.00,Weather View 32 v70,2014-01-03 12:32:00,
2014-01-03 04:37:00,48.8,33.8,30.10,NE,44,2.0,3.0,56,0.00,,,0.00,Weather View 32 v70,2014-01-03 12:37:00,
2014-01-03 04:42:00,48.8,32.9,30.10,NE,44,2.0,3.0,54,0.00,,,0.00,Weather View 32 v70,2014-01-03 12:42:00,
2014-01-03 04:47:00,49.3,32.9,30.11,NE,43,2.0,3.0,53,0.00,,,0.00,Weather View 32 v70,2014-01-03 12:47:00,
2014-01-03 04:52:00,49.5,33.0,30.10,NE,43,2.0,3.0,53,0.00,,,0.00,Weather View 32 v70,2014-01-03 12:52:00,
2014-01-03 04:57:00,49.5,33.0,30.10,NE,44,1.0,3.0,53,0.00,,,0.00,Weather View 32 v70,2014-01-03 12:57:00,
2014-01-03 05:02:00,49.2,33.2,30.10,NE,44,1.0,3.0,54,0.00,,,0.00,Weather View 32 v70,2014-01-03 13:02:00,
2014-01-03 05:07:00,48.9,33.4,30.10,NE,44,0.0,3.0,55,0.00,,,0.00,Weather View 32 v70,2014-01-03 13:07:00,
2014-01-03 05:12:00,48.8,32.9,30.10,NE,44,2.0,3.0,54,0.00,,,0.00,Weather View 32 v70,2014-01-03 13:12:00,
2014-01-03 05:17:00,48.8,33.3,30.10,NE,44,1.0,3.0,55,0.00,,,0.00,Weather View 32 v70,2014-01-03 13:17:00,
2014-01-03 05:22:00,48.5,33.5,30.10,NE,44,1.0,3.0,56,0.00,,,0.00,Weather View 32 v70,2014-01-03 13:22:00,
2014-01-03 05:27:00,48.0,33.5,30.10,NE,44,1.0,3.0,57,0.00,,,0.00,Weather View 32 v70,2014-01-03 13:27:00,
2014-01-03 05:32:00,48.0,33.5,30.10,NE,44,1.0,3.0,57,0.00,,,0.00,Weather View 32 v70,2014-01-03 13:32:00,
2014-01-03 05:37:00,48.2,33.7,30.10,NE,44,2.0,3.0,57,0.00,,,0.00,Weather View 32 v70,2014-01-03 13:37:00,
2014-01-03 05:42:00,48.3,33.3,30.10,NE,44,0.0,3.0,56,0.00,,,0.00,Weather View 32 v70,2014-01-03 13:42:00,
2014-01-03 05:47:00,48.4,33.4,30.11,NE,44,1.0,3.0,56,0.00,,,0.00,Weather View 32 v70,2014-01-03 13:47:00,
2014-01-03 05:52:00,48.3,33.3,30.11,NE,44,2.0,3.0,56,0.00,,,0.00,Weather View 32 v70,2014-01-03 13:52:00,
2014-01-03 05:57:00,48.4,32.9,30.11,NE,44,2.0,3.0,55,0.00,,,0.00,Weather View 32 v70,2014-01-03 13:57:00,
2014-01-03 06:02:00,48.6,33.1,30.11,NE,44,1.0,3.0,55,0.00,,,0.00,Weather View 32 v70,2014-01-03 14:02:00,
2014-01-03 06:07:00,48.7,33.2,30.11,NE,44,1.0,3.0,55,0.00,,,0.00,Weather View 32 v70,2014-01-03 14:07:00,
2014-01-03 06:12:00,48.6,33.1,30.11,NE,44,1.0,3.0,55,0.00,,,0.00,Weather View 32 v70,2014-01-03 14:12:00,
2014-01-03 06:17:00,48.3,33.7,30.11,NE,44,1.0,3.0,57,0.00,,,0.00,Weather View 32 v70,2014-01-03 14:17:00,
2014-01-03 06:22:00,47.7,34.0,30.11,NE,44,1.0,3.0,59,0.00,,,0.00,Weather View 32 v70,2014-01-03 14:22:00,
2014-01-03 06:27:00,47.1,33.9,30.11,NE,44,2.0,3.0,60,0.00,,,0.00,Weather View 32 v70,2014-01-03 14:27:00,
2014-01-03 06:32:00,46.5,34.2,30.11,NE,50,2.0,3.0,62,0.00,,,0.00,Weather View 32 v70,2014-01-03 14:32:00,
2014-01-03 06:37:00,45.8,33.1,30.11,NE,50,2.0,3.0,61,0.00,,,0.00,Weather View 32 v70,2014-01-03 14:37:00,
2014-01-03 06:42:00,45.6,33.3,30.11,NE,50,1.0,3.0,62,0.00,,,0.00,Weather View 32 v70,2014-01-03 14:42:00,
2014-01-03 06:47:00,46.0,33.3,30.11,NE,49,2.0,3.0,61,0.00,,,0.00,Weather View 32 v70,2014-01-03 14:47:00,
2014-01-03 06:52:00,46.5,33.3,30.11,NE,53,2.0,3.0,60,0.00,,,0.00,Weather View 32 v70,2014-01-03 14:52:00,
2014-01-03 06:57:00,46.7,33.1,30.11,NE,54,2.0,3.0,59,0.00,,,0.00,Weather View 32 v70,2014-01-03 14:57:00,
2014-01-03 07:02:00,47.1,33.1,30.11,NE,52,1.0,3.0,58,0.00,,,0.00,Weather View 32 v70,2014-01-03 15:02:00,
2014-01-03 07:07:00,47.3,33.2,30.11,NE,51,2.0,3.0,58,0.00,,,0.00,Weather View 32 v70,2014-01-03 15:07:00,
2014-01-03 07:12:00,47.3,33.2,30.11,NE,50,2.0,3.0,58,0.00,,,0.00,Weather View 32 v70,2014-01-03 15:12:00,
2014-01-03 07:17:00,47.4,32.9,30.11,NE,40,2.0,3.0,57,0.00,,,0.00,Weather View 32 v70,2014-01-03 15:17:00,
2014-01-03 07:22:00,47.6,32.7,30.11,NE,42,3.0,3.0,56,0.00,,,0.00,Weather View 32 v70,2014-01-03 15:22:00,
2014-01-03 07:27:00,47.6,32.7,30.11,NE,43,2.0,3.0,56,0.00,,,0.00,Weather View 32 v70,2014-01-03 15:27:00,
2014-01-03 07:32:00,47.7,32.7,30.11,NE,41,2.0,3.0,56,0.00,,,0.00,Weather View 32 v70,2014-01-03 15:32:00,
2014-01-03 07:37:00,47.8,32.4,30.11,NE,46,2.0,3.0,55,0.00,,,0.00,Weather View 32 v70,2014-01-03 15:37:00,
2014-01-03 07:42:00,47.8,32.8,30.11,NE,46,2.0,3.0,56,0.00,,,0.00,Weather View 32 v70,2014-01-03 15:42:00,
2014-01-03 07:47:00,48.0,32.6,30.11,NE,46,2.0,3.0,55,0.00,,,0.00,Weather View 32 v70,2014-01-03 15:47:00,
2014-01-03 07:52:00,48.2,32.8,30.11,NE,47,2.0,3.0,55,0.00,,,0.00,Weather View 32 v70,2014-01-03 15:52:00,
2014-01-03 07:57:00,48.1,32.7,30.11,NE,47,2.0,3.0,55,0.00,,,0.00,Weather View 32 v70,2014-01-03 15:57:00,
2014-01-03 08:02:00,47.9,32.9,30.11,NE,46,2.0,3.0,56,0.00,,,0.00,Weather View 32 v70,2014-01-03 16:02:00,
2014-01-03 08:07:00,48.0,32.6,30.11,NE,46,2.0,3.0,55,0.00,,,0.00,Weather View 32 v70,2014-01-03 16:07:00,
2014-01-03 08:12:00,48.2,32.8,30.12,NE,47,1.0,3.0,55,0.00,,,0.00,Weather View 32 v70,2014-01-03 16:12:00,
2014-01-03 08:17:00,48.5,33.0,30.11,NE,46,1.0,3.0,55,0.00,,,0.00,Weather View 32 v70,2014-01-03 16:17:00,
2014-01-03 08:22:00,49.0,33.0,30.12,NE,46,1.0,3.0,54,0.00,,,0.00,Weather View 32 v70,2014-01-03 16:22:00,
2014-01-03 08:27:00,49.5,33.5,30.12,NE,46,2.0,3.0,54,0.00,,,0.00,Weather View 32 v70,2014-01-03 16:27:00,
2014-01-03 08:32:00,49.5,33.5,30.12,NE,46,1.0,3.0,54,0.00,,,0.00,Weather View 32 v70,2014-01-03 16:32:00,
2014-01-03 08:37:00,49.5,34.4,30.12,NE,47,1.0,3.0,56,0.00,,,0.00,Weather View 32 v70,2014-01-03 16:37:00,
2014-01-03 08:42:00,49.7,34.2,30.12,NE,46,2.0,3.0,55,0.00,,,0.00,Weather View 32 v70,2014-01-03 16:42:00,
2014-01-03 08:47:00,49.9,34.3,30.12,NE,47,1.0,3.0,55,0.00,,,0.00,Weather View 32 v70,2014-01-03 16:47:00,
2014-01-03 08:52:00,50.0,34.9,30.12,NE,47,2.0,2.0,56,0.00,,,0.00,Weather View 32 v70,2014-01-03 16:52:00,
2014-01-03 08:57:00,50.0,34.9,30.12,NE,47,2.0,2.0,56,0.00,,,0.00,Weather View 32 v70,2014-01-03 16:57:00,
2014-01-03 09:02:00,50.3,34.7,30.12,NE,47,1.0,2.0,55,0.00,,,0.00,Weather View 32 v70,2014-01-03 17:02:00,
2014-01-03 09:07:00,50.7,35.1,30.12,NE,46,2.0,2.0,55,0.00,,,0.00,Weather View 32 v70,2014-01-03 17:07:00,
2014-01-03 09:12:00,51.0,35.8,30.12,NE,46,2.0,2.0,56,0.00,,,0.00,Weather View 32 v70,2014-01-03 17:12:00,
2014-01-03 09:17:00,51.4,35.7,30.12,NE,46,1.0,2.0,55,0.00,,,0.00,Weather View 32 v70,2014-01-03 17:17:00,
2014-01-03 09:22:00,51.8,36.6,30.12,NE,46,1.0,2.0,56,0.00,,,0.00,Weather View 32 v70,2014-01-03 17:22:00,
2014-01-03 09:27:00,52.1,37.3,30.12,NE,46,1.0,2.0,57,0.00,,,0.00,Weather View 32 v70,2014-01-03 17:27:00,
2014-01-03 09:32:00,52.7,37.9,30.12,NE,46,1.0,2.0,57,0.00,,,0.00,Weather View 32 v70,2014-01-03 17:32:00,
2014-01-03 09:37:00,53.4,37.6,30.12,NE,47,1.0,2.0,55,0.00,,,0.00,Weather View 32 v70,2014-01-03 17:37:00,
2014-01-03 09:42:00,54.3,38.4,30.12,NE,47,0.0,2.0,55,0.00,,,0.00,Weather View 32 v70,2014-01-03 17:42:00,
2014-01-03 09:47:00,54.9,38.1,30.12,NE,46,0.0,2.0,53,0.00,,,0.00,Weather View 32 v70,2014-01-03 17:47:00,
2014-01-03 09:52:00,55.3,37.9,30.12,NE,47,0.0,2.0,52,0.00,,,0.00,Weather View 32 v70,2014-01-03 17:52:00,
2014-01-03 09:57:00,55.6,38.2,30.12,NE,46,0.0,2.0,52,0.00,,,0.00,Weather View 32 v70,2014-01-03 17:57:00,
2014-01-03 10:02:00,56.2,37.8,30.12,NE,46,0.0,2.0,50,0.00,,,0.00,Weather View 32 v70,2014-01-03 18:02:00,
2014-01-03 10:07:00,56.6,38.6,30.12,NE,47,0.0,2.0,51,0.00,,,0.00,Weather View 32 v70,2014-01-03 18:07:00,
2014-01-03 10:12:00,56.7,38.7,30.12,NE,47,0.0,2.0,51,0.00,,,0.00,Weather View 32 v70,2014-01-03 18:12:00,
2014-01-03 10:17:00,57.1,38.6,30.12,NE,47,0.0,2.0,50,0.00,,,0.00,Weather View 32 v70,2014-01-03 18:17:00,
2014-01-03 10:22:00,57.4,39.9,30.11,NE,46,0.0,2.0,52,0.00,,,0.00,Weather View 32 v70,2014-01-03 18:22:00,
2014-01-03 10:27:00,57.5,39.0,30.12,NE,47,0.0,1.0,50,0.00,,,0.00,Weather View 32 v70,2014-01-03 18:27:00,
2014-01-03 10:32:00,57.5,39.5,30.11,NE,47,0.0,1.0,51,0.00,,,0.00,Weather View 32 v70,2014-01-03 18:32:00,
2014-01-03 10:37:00,57.6,38.0,30.11,SW,221,1.0,2.0,48,0.00,,,0.00,Weather View 32 v70,2014-01-03 18:37:00,
2014-01-03 10:42:00,57.9,37.2,30.11,WSW,238,2.0,2.0,46,0.00,,,0.00,Weather View 32 v70,2014-01-03 18:42:00,
2014-01-03 10:47:00,58.2,37.5,30.11,SW,235,0.0,2.0,46,0.00,,,0.00,Weather View 32 v70,2014-01-03 18:47:00,
2014-01-03 10:52:00,58.5,37.7,30.11,SW,233,0.0,2.0,46,0.00,,,0.00,Weather View 32 v70,2014-01-03 18:52:00,
2014-01-03 10:57:00,58.4,38.2,30.11,WSW,239,0.0,2.0,47,0.00,,,0.00,Weather View 32 v70,2014-01-03 18:57:00,
2014-01-03 11:02:00,58.4,36.5,30.11,SW,232,2.0,2.0,44,0.00,,,0.00,Weather View 32 v70,2014-01-03 19:02:00,
2014-01-03 11:07:00,58.8,36.3,30.11,South,183,0.0,3.0,43,0.00,,,0.00,Weather View 32 v70,2014-01-03 19:07:00,
2014-01-03 11:12:00,59.2,37.8,30.10,SE,142,0.0,3.0,45,0.00,,,0.00,Weather View 32 v70,2014-01-03 19:12:00,
2014-01-03 11:17:00,59.3,37.9,30.10,SW,230,0.0,3.0,45,0.00,,,0.00,Weather View 32 v70,2014-01-03 19:17:00,
2014-01-03 11:22:00,59.3,36.8,30.10,SSW,211,1.0,3.0,43,0.00,,,0.00,Weather View 32 v70,2014-01-03 19:22:00,
2014-01-03 11:27:00,59.4,37.4,30.10,SW,230,2.0,3.0,44,0.00,,,0.00,Weather View 32 v70,2014-01-03 19:27:00,
2014-01-03 11:32:00,59.6,36.4,30.09,SSW,207,1.0,3.0,42,0.00,,,0.00,Weather View 32 v70,2014-01-03 19:32:00,
2014-01-03 11:37:00,59.9,36.1,30.09,SW,232,1.0,3.0,41,0.00,,,0.00,Weather View 32 v70,2014-01-03 19:37:00,
2014-01-03 11:42:00,60.0,38.0,30.09,West,278,1.0,3.0,44,0.00,,,0.00,Weather View 32 v70,2014-01-03 19:42:00,
2014-01-03 11:47:00,59.9,37.3,30.08,West,271,0.0,3.0,43,0.00,,,0.00,Weather View 32 v70,2014-01-03 19:47:00,
2014-01-03 11:52:00,59.9,37.3,30.08,SW,226,1.0,3.0,43,0.00,,,0.00,Weather View 32 v70,2014-01-03 19:52:00,
2014-01-03 11:57:00,60.0,37.4,30.08,WSW,240,0.0,3.0,43,0.00,,,0.00,Weather View 32 v70,2014-01-03 19:57:00,
2014-01-03 12:02:00,60.0,37.4,30.08,SW,225,1.0,3.0,43,0.00,,,0.00,Weather View 32 v70,2014-01-03 20:02:00,
2014-01-03 12:07:00,60.2,37.0,30.07,WSW,240,0.0,3.0,42,0.00,,,0.00,Weather View 32 v70,2014-01-03 20:07:00,
2014-01-03 12:12:00,60.2,38.2,30.07,SW,228,0.0,3.0,44,0.00,,,0.00,Weather View 32 v70,2014-01-03 20:12:00,
2014-01-03 12:17:00,60.3,37.7,30.07,WSW,237,1.0,3.0,43,0.00,,,0.00,Weather View 32 v70,2014-01-03 20:17:00,
2014-01-03 12:22:00,60.2,36.4,30.07,WSW,237,0.0,4.0,41,0.00,,,0.00,Weather View 32 v70,2014-01-03 20:22:00,
2014-01-03 12:27:00,60.3,37.1,30.07,West,278,1.0,4.0,42,0.00,,,0.00,Weather View 32 v70,2014-01-03 20:27:00,
2014-01-03 12:32:00,60.3,37.7,30.06,SW,222,0.0,4.0,43,0.00,,,0.00,Weather View 32 v70,2014-01-03 20:32:00,
2014-01-03 12:37:00,60.2,37.6,30.06,SW,229,2.0,4.0,43,0.00,,,0.00,Weather View 32 v70,2014-01-03 20:37:00,
2014-01-03 12:42:00,60.3,38.8,30.06,SW,226,2.0,4.0,45,0.00,,,0.00,Weather View 32 v70,2014-01-03 20:42:00,
2014-01-03 12:47:00,60.3,38.8,30.05,SW,218,2.0,4.0,45,0.00,,,0.00,Weather View 32 v70,2014-01-03 20:47:00,
2014-01-03 12:52:00,60.3,37.7,30.05,SSW,197,2.0,4.0,43,0.00,,,0.00,Weather View 32 v70,2014-01-03 20:52:00,
2014-01-03 12:57:00,60.3,38.2,30.05,SSW,206,2.0,4.0,44,0.00,,,0.00,Weather View 32 v70,2014-01-03 20:57:00,
2014-01-03 13:02:00,60.4,38.3,30.05,WSW,238,2.0,4.0,44,0.00,,,0.00,Weather View 32 v70,2014-01-03 21:02:00,
2014-01-03 13:07:00,60.4,38.3,30.05,SW,222,2.0,4.0,44,0.00,,,0.00,Weather View 32 v70,2014-01-03 21:07:00,
2014-01-03 13:12:00,60.5,38.4,30.04,SSW,213,0.0,4.0,44,0.00,,,0.00,Weather View 32 v70,2014-01-03 21:12:00,
2014-01-03 13:17:00,60.6,38.5,30.04,SE,131,0.0,4.0,44,0.00,,,0.00,Weather View 32 v70,2014-01-03 21:17:00,
2014-01-03 13:22:00,60.6,39.1,30.04,SW,228,0.0,4.0,45,0.00,,,0.00,Weather View 32 v70,2014-01-03 21:22:00,
2014-01-03 13:27:00,60.7,38.6,30.04,SW,223,1.0,4.0,44,0.00,,,0.00,Weather View 32 v70,2014-01-03 21:27:00,
2014-01-03 13:32:00,60.8,39.3,30.04,SW,222,0.0,4.0,45,0.00,,,0.00,Weather View 32 v70,2014-01-03 21:32:00,
2014-01-03 13:37:00,61.0,39.5,30.03,NNW,328,0.0,4.0,45,0.00,,,0.00,Weather View 32 v70,2014-01-03 21:37:00,
2014-01-03 13:42:00,60.9,39.4,30.03,SW,233,2.0,4.0,45,0.00,,,0.00,Weather View 32 v70,2014-01-03 21:42:00,
2014-01-03 13:47:00,60.9,38.8,30.03,SW,222,1.0,4.0,44,0.00,,,0.00,Weather View 32 v70,2014-01-03 21:47:00,
2014-01-03 13:52:00,61.0,39.5,30.03,SW,227,0.0,4.0,45,0.00,,,0.00,Weather View 32 v70,2014-01-03 21:52:00,
2014-01-03 13:57:00,61.3,40.3,30.03,WSW,248,0.0,4.0,46,0.00,,,0.00,Weather View 32 v70,2014-01-03 21:57:00,
2014-01-03 14:02:00,61.5,39.9,30.03,SW,222,3.0,4.0,45,0.00,,,0.00,Weather View 32 v70,2014-01-03 22:02:00,
2014-01-03 14:07:00,61.3,39.2,30.03,SSW,213,2.0,3.0,44,0.00,,,0.00,Weather View 32 v70,2014-01-03 22:07:00,
2014-01-03 14:12:00,61.3,39.7,30.02,WSW,242,0.0,3.0,45,0.00,,,0.00,Weather View 32 v70,2014-01-03 22:12:00,
2014-01-03 14:17:00,61.3,40.3,30.02,SW,225,1.0,3.0,46,0.00,,,0.00,Weather View 32 v70,2014-01-03 22:17:00,
2014-01-03 14:22:00,61.3,40.3,30.02,SW,234,1.0,3.0,46,0.00,,,0.00,Weather View 32 v70,2014-01-03 22:22:00,
2014-01-03 14:27:00,61.0,39.5,30.02,SSW,206,2.0,3.0,45,0.00,,,0.00,Weather View 32 v70,2014-01-03 22:27:00,
2014-01-03 14:32:00,61.1,39.0,30.02,SW,228,1.0,3.0,44,0.00,,,0.00,Weather View 32 v70,2014-01-03 22:32:00,
2014-01-03 14:37:00,61.2,40.2,30.02,WSW,238,1.0,3.0,46,0.00,,,0.00,Weather View 32 v70,2014-01-03 22:37:00,
2014-01-03 14:42:00,61.1,39.5,30.02,SW,222,2.0,3.0,45,0.00,,,0.00,Weather View 32 v70,2014-01-03 22:42:00,
2014-01-03 14:47:00,61.2,38.5,30.02,SW,214,0.0,3.0,43,0.00,,,0.00,Weather View 32 v70,2014-01-03 22:47:00,
2014-01-03 14:52:00,61.2,39.6,30.02,WSW,249,1.0,3.0,45,0.00,,,0.00,Weather View 32 v70,2014-01-03 22:52:00,
2014-01-03 14:57:00,61.1,39.0,30.02,SW,236,0.0,3.0,44,0.00,,,0.00,Weather View 32 v70,2014-01-03 22:57:00,
2014-01-03 15:02:00,61.3,39.2,30.02,SW,231,0.0,3.0,44,0.00,,,0.00,Weather View 32 v70,2014-01-03 23:02:00,
2014-01-03 15:07:00,61.4,39.8,30.02,SW,219,1.0,3.0,45,0.00,,,0.00,Weather View 32 v70,2014-01-03 23:07:00,
2014-01-03 15:12:00,61.3,40.3,30.02,WSW,245,0.0,3.0,46,0.00,,,0.00,Weather View 32 v70,2014-01-03 23:12:00,
2014-01-03 15:17:00,61.1,39.5,30.01,SW,219,0.0,3.0,45,0.00,,,0.00,Weather View 32 v70,2014-01-03 23:17:00,
2014-01-03 15:22:00,60.7,40.8,30.01,SW,221,0.0,3.0,48,0.00,,,0.00,Weather View 32 v70,2014-01-03 23:22:00,
2014-01-03 15:27:00,60.4,40.0,30.01,SW,225,0.0,3.0,47,0.00,,,0.00,Weather View 32 v70,2014-01-03 23:27:00,
2014-01-03 15:32:00,60.3,39.4,30.01,SW,234,0.0,3.0,46,0.00,,,0.00,Weather View 32 v70,2014-01-03 23:32:00,
2014-01-03 15:37:00,60.1,40.3,30.01,SW,232,0.0,3.0,48,0.00,,,0.00,Weather View 32 v70,2014-01-03 23:37:00,
2014-01-03 15:42:00,59.9,41.2,30.01,SW,232,0.0,3.0,50,0.00,,,0.00,Weather View 32 v70,2014-01-03 23:42:00,
2014-01-03 15:47:00,59.4,40.7,30.01,SW,232,0.0,3.0,50,0.00,,,0.00,Weather View 32 v70,2014-01-03 23:47:00,
2014-01-03 15:52:00,58.8,40.7,30.01,SW,232,0.0,3.0,51,0.00,,,0.00,Weather View 32 v70,2014-01-03 23:52:00,
2014-01-03 15:57:00,58.4,41.3,30.01,SW,232,0.0,2.0,53,0.00,,,0.00,Weather View 32 v70,2014-01-03 23:57:00,
2014-01-03 16:02:00,58.0,40.9,30.00,SW,231,0.0,2.0,53,0.00,,,0.00,Weather View 32 v70,2014-01-04 00:02:00,
2014-01-03 16:07:00,57.8,40.7,30.01,SW,232,0.0,2.0,53,0.00,,,0.00,Weather View 32 v70,2014-01-04 00:07:00,
2014-01-03 16:12:00,57.5,40.5,30.01,SW,232,0.0,2.0,53,0.00,,,0.00,Weather View 32 v70,2014-01-04 00:12:00,
2014-01-03 16:17:00,57.2,40.7,30.01,SW,232,0.0,1.0,54,0.00,,,0.00,Weather View 32 v70,2014-01-04 00:17:00,
2014-01-03 16:18:00,57.2,40.7,30.01,SW,232,0.0,1.0,54,0.00,,,0.00,Weather View 32 v70,2014-01-04 00:18:00,
2014-01-03 16:23:00,56.9,40.9,30.01,SW,232,0.0,1.0,55,0.00,,,0.00,Weather View 32 v70,2014-01-04 00:23:00,
2014-01-03 16:28:00,56.6,40.6,30.01,SW,232,0.0,1.0,55,0.00,,,0.00,Weather View 32 v70,2014-01-04 00:28:00,
2014-01-03 16:33:00,56.3,40.8,30.01,SW,231,0.0,1.0,56,0.00,,,0.00,Weather View 32 v70,2014-01-04 00:33:00,
2014-01-03 16:38:00,56.0,40.5,30.01,SW,232,0.0,0.0,56,0.00,,,0.00,Weather View 32 v70,2014-01-04 00:38:00,
2014-01-03 16:43:00,55.8,40.8,30.01,SW,234,0.0,0.0,57,0.00,,,0.00,Weather View 32 v70,2014-01-04 00:43:00,
2014-01-03 16:48:00,55.5,40.9,30.01,SW,233,0.0,0.0,58,0.00,,,0.00,Weather View 32 v70,2014-01-04 00:48:00,
2014-01-03 16:53:00,55.1,40.6,30.00,SW,233,0.0,0.0,58,0.00,,,0.00,Weather View 32 v70,2014-01-04 00:53:00,
2014-01-03 16:58:00,54.8,40.3,30.00,SW,232,0.0,0.0,58,0.00,,,0.00,Weather View 32 v70,2014-01-04 00:58:00,
2014-01-03 17:03:00,54.5,40.4,30.00,SW,232,1.0,0.0,59,0.00,,,0.00,Weather View 32 v70,2014-01-04 01:03:00,
2014-01-03 17:08:00,54.2,40.6,30.00,SW,232,1.0,1.0,60,0.00,,,0.00,Weather View 32 v70,2014-01-04 01:08:00,
2014-01-03 17:13:00,53.8,40.6,30.01,SW,233,0.0,1.0,61,0.00,,,0.00,Weather View 32 v70,2014-01-04 01:13:00,
2014-01-03 17:18:00,53.4,40.3,30.01,SW,233,1.0,1.0,61,0.00,,,0.00,Weather View 32 v70,2014-01-04 01:18:00,
2014-01-03 17:23:00,53.1,40.0,30.01,SW,233,0.0,1.0,61,0.00,,,0.00,Weather View 32 v70,2014-01-04 01:23:00,
2014-01-03 17:28:00,53.0,40.3,30.01,NNW,333,1.0,1.0,62,0.00,,,0.00,Weather View 32 v70,2014-01-04 01:28:00,
2014-01-03 17:33:00,52.8,40.5,30.01,NNW,338,0.0,1.0,63,0.00,,,0.00,Weather View 32 v70,2014-01-04 01:33:00,
2014-01-03 17:38:00,52.5,40.2,30.01,NNW,338,1.0,1.0,63,0.00,,,0.00,Weather View 32 v70,2014-01-04 01:38:00,
2014-01-03 17:44:00,52.4,40.2,30.01,North,11,1.0,1.0,63,0.00,,,0.00,Weather View 32 v70,2014-01-04 01:44:00,
2014-01-03 17:49:00,52.5,40.7,30.01,North,11,1.0,1.0,64,0.00,,,0.00,Weather View 32 v70,2014-01-04 01:49:00,
2014-01-03 17:54:00,52.3,40.9,30.01,North,11,1.0,1.0,65,0.00,,,0.00,Weather View 32 v70,2014-01-04 01:54:00,
2014-01-03 17:59:00,52.3,41.3,30.01,NE,51,2.0,2.0,66,0.00,,,0.00,Weather View 32 v70,2014-01-04 01:59:00,
2014-01-03 18:04:00,52.2,41.2,30.01,NE,51,1.0,3.0,66,0.00,,,0.00,Weather View 32 v70,2014-01-04 02:04:00,
2014-01-03 18:09:00,52.2,40.8,30.01,NE,51,1.0,3.0,65,0.00,,,0.00,Weather View 32 v70,2014-01-04 02:09:00,
2014-01-03 18:14:00,52.3,40.9,30.01,NE,51,1.0,3.0,65,0.00,,,0.00,Weather View 32 v70,2014-01-04 02:14:00,
2014-01-03 18:19:00,52.2,40.8,30.01,NE,50,2.0,3.0,65,0.00,,,0.00,Weather View 32 v70,2014-01-04 02:19:00,
2014-01-03 18:23:00,52.1,40.7,30.01,NE,49,2.0,3.0,65,0.00,,,0.00,Weather View 32 v70,2014-01-04 02:23:00,
2014-01-03 18:28:00,52.1,40.7,30.01,NE,49,1.0,3.0,65,0.00,,,0.00,Weather View 32 v70,2014-01-04 02:28:00,
2014-01-03 18:33:00,52.0,40.6,30.01,NE,50,2.0,3.0,65,0.00,,,0.00,Weather View 32 v70,2014-01-04 02:33:00,
2014-01-03 18:38:00,52.0,40.6,30.01,NE,50,1.0,3.0,65,0.00,,,0.00,Weather View 32 v70,2014-01-04 02:38:00,
2014-01-03 18:43:00,51.6,40.2,30.01,NE,50,1.0,3.0,65,0.00,,,0.00,Weather View 32 v70,2014-01-04 02:43:00,
2014-01-03 18:48:00,51.3,40.3,30.01,NE,50,2.0,3.0,66,0.00,,,0.00,Weather View 32 v70,2014-01-04 02:48:00,
2014-01-03 18:53:00,51.2,40.2,30.01,NE,45,2.0,3.0,66,0.00,,,0.00,Weather View 32 v70,2014-01-04 02:53:00,
2014-01-03 18:57:00,51.1,40.1,30.02,NE,46,1.0,3.0,66,0.00,,,0.00,Weather View 32 v70,2014-01-04 02:57:00,
2014-01-03 19:02:00,51.0,40.4,30.02,NE,46,3.0,3.0,67,0.00,,,0.00,Weather View 32 v70,2014-01-04 03:02:00,
2014-01-03 19:07:00,51.1,40.5,30.02,NE,46,1.0,3.0,67,0.00,,,0.00,Weather View 32 v70,2014-01-04 03:07:00,
2014-01-03 19:12:00,51.1,40.5,30.02,NE,45,1.0,3.0,67,0.00,,,0.00,Weather View 32 v70,2014-01-04 03:12:00,
2014-01-03 19:17:00,51.0,40.4,30.02,NE,45,2.0,3.0,67,0.00,,,0.00,Weather View 32 v70,2014-01-04 03:17:00,
2014-01-03 19:22:00,51.0,40.0,30.02,NE,46,2.0,3.0,66,0.00,,,0.00,Weather View 32 v70,2014-01-04 03:22:00,
2014-01-03 19:27:00,51.2,39.8,30.02,NE,45,2.0,3.0,65,0.00,,,0.00,Weather View 32 v70,2014-01-04 03:27:00,
2014-01-03 19:32:00,51.3,39.5,30.02,NE,45,2.0,3.0,64,0.00,,,0.00,Weather View 32 v70,2014-01-04 03:32:00,
2014-01-03 19:37:00,51.3,39.9,30.02,NE,45,2.0,3.0,65,0.00,,,0.00,Weather View 32 v70,2014-01-04 03:37:00,
2014-01-03 19:42:00,50.8,39.8,30.03,NE,45,2.0,3.0,66,0.00,,,0.00,Weather View 32 v70,2014-01-04 03:42:00,
2014-01-03 19:47:00,50.1,39.9,30.03,NE,45,2.0,3.0,68,0.00,,,0.00,Weather View 32 v70,2014-01-04 03:47:00,
2014-01-03 19:52:00,49.8,39.6,30.03,NE,45,2.0,3.0,68,0.00,,,0.00,Weather View 32 v70,2014-01-04 03:52:00,
2014-01-03 19:57:00,49.5,39.7,30.02,NE,46,2.0,3.0,69,0.00,,,0.00,Weather View 32 v70,2014-01-04 03:57:00,
2014-01-03 20:02:00,49.3,39.5,30.03,NE,46,2.0,3.0,69,0.00,,,0.00,Weather View 32 v70,2014-01-04 04:02:00,
2014-01-03 20:07:00,49.5,39.4,30.03,NE,43,2.0,3.0,68,0.00,,,0.00,Weather View 32 v70,2014-01-04 04:07:00,
2014-01-03 20:12:00,49.7,39.2,30.03,NE,43,2.0,3.0,67,0.00,,,0.00,Weather View 32 v70,2014-01-04 04:12:00,
2014-01-03 20:17:00,49.9,39.4,30.03,NE,43,2.0,3.0,67,0.00,,,0.00,Weather View 32 v70,2014-01-04 04:17:00,
2014-01-03 20:22:00,49.7,39.2,30.03,NE,42,2.0,3.0,67,0.00,,,0.00,Weather View 32 v70,2014-01-04 04:22:00,
2014-01-03 20:27:00,49.5,39.4,30.03,NE,44,2.0,3.0,68,0.00,,,0.00,Weather View 32 v70,2014-01-04 04:27:00,
2014-01-03 20:32:00,49.0,38.9,30.03,NE,44,1.0,3.0,68,0.00,,,0.00,Weather View 32 v70,2014-01-04 04:32:00,
2014-01-03 20:37:00,49.0,38.5,30.03,NE,43,2.0,3.0,67,0.00,,,0.00,Weather View 32 v70,2014-01-04 04:37:00,
2014-01-03 20:42:00,49.2,37.9,30.03,NE,43,2.0,3.0,65,0.00,,,0.00,Weather View 32 v70,2014-01-04 04:42:00,
2014-01-03 20:47:00,49.6,37.9,30.03,NE,44,2.0,2.0,64,0.00,,,0.00,Weather View 32 v70,2014-01-04 04:47:00,
2014-01-03 20:52:00,49.7,37.6,30.03,NE,44,2.0,3.0,63,0.00,,,0.00,Weather View 32 v70,2014-01-04 04:52:00,
2014-01-03 20:57:00,49.7,37.2,30.04,NE,44,2.0,3.0,62,0.00,,,0.00,Weather View 32 v70,2014-01-04 04:57:00,
2014-01-03 21:01:00,49.8,36.9,30.03,NE,44,2.0,3.0,61,0.00,,,0.00,Weather View 32 v70,2014-01-04 05:01:00,
2014-01-03 21:06:00,49.9,37.0,30.03,NE,44,2.0,3.0,61,0.00,,,0.00,Weather View 32 v70,2014-01-04 05:06:00,
2014-01-03 21:11:00,49.9,36.5,30.03,NE,44,1.0,3.0,60,0.00,,,0.00,Weather View 32 v70,2014-01-04 05:11:00,
2014-01-03 21:16:00,49.9,36.5,30.03,NE,41,1.0,3.0,60,0.00,,,0.00,Weather View 32 v70,2014-01-04 05:16:00,
2014-01-03 21:21:00,49.9,36.5,30.04,NE,41,1.0,3.0,60,0.00,,,0.00,Weather View 32 v70,2014-01-04 05:21:00,
2014-01-03 21:26:00,49.8,36.0,30.04,NE,41,2.0,3.0,59,0.00,,,0.00,Weather View 32 v70,2014-01-04 05:26:00,
2014-01-03 21:31:00,50.0,35.8,30.04,NE,41,2.0,3.0,58,0.00,,,0.00,Weather View 32 v70,2014-01-04 05:31:00,
2014-01-03 21:36:00,50.0,35.3,30.04,NE,39,2.0,3.0,57,0.00,,,0.00,Weather View 32 v70,2014-01-04 05:36:00,
2014-01-03 21:41:00,50.0,35.8,30.04,NE,39,2.0,3.0,58,0.00,,,0.00,Weather View 32 v70,2014-01-04 05:41:00,
2014-01-03 21:46:00,49.9,35.7,30.04,NE,41,2.0,3.0,58,0.00,,,0.00,Weather View 32 v70,2014-01-04 05:46:00,
2014-01-03 21:51:00,50.0,35.3,30.04,NE,41,1.0,3.0,57,0.00,,,0.00,Weather View 32 v70,2014-01-04 05:51:00,
2014-01-03 21:56:00,49.8,35.6,30.04,NE,41,1.0,3.0,58,0.00,,,0.00,Weather View 32 v70,2014-01-04 05:56:00,
2014-01-03 22:01:00,49.4,36.1,30.04,NE,41,1.0,3.0,60,0.00,,,0.00,Weather View 32 v70,2014-01-04 06:01:00,
2014-01-03 22:06:00,48.8,35.9,30.04,NE,41,1.0,3.0,61,0.00,,,0.00,Weather View 32 v70,2014-01-04 06:06:00,
2014-01-03 22:11:00,48.5,36.1,30.04,NE,41,2.0,3.0,62,0.00,,,0.00,Weather View 32 v70,2014-01-04 06:11:00,
2014-01-03 22:15:00,48.1,35.7,30.04,NE,41,1.0,3.0,62,0.00,,,0.00,Weather View 32 v70,2014-01-04 06:15:00,
2014-01-03 22:20:00,48.0,35.6,30.04,NE,41,1.0,3.0,62,0.00,,,0.00,Weather View 32 v70,2014-01-04 06:20:00,
2014-01-03 22:25:00,47.5,35.5,30.04,NE,43,2.0,3.0,63,0.00,,,0.00,Weather View 32 v70,2014-01-04 06:25:00,
2014-01-03 22:30:00,47.6,35.2,30.04,NE,43,2.0,3.0,62,0.00,,,0.00,Weather View 32 v70,2014-01-04 06:30:00,
2014-01-03 22:35:00,47.7,34.9,30.04,NE,44,3.0,3.0,61,0.00,,,0.00,Weather View 32 v70,2014-01-04 06:35:00,
2014-01-03 22:40:00,47.9,35.1,30.04,NE,44,2.0,3.0,61,0.00,,,0.00,Weather View 32 v70,2014-01-04 06:40:00,
2014-01-03 22:45:00,47.9,34.7,30.04,NE,46,2.0,3.0,60,0.00,,,0.00,Weather View 32 v70,2014-01-04 06:45:00,
2014-01-03 22:50:00,48.0,34.8,30.04,NE,45,2.0,3.0,60,0.00,,,0.00,Weather View 32 v70,2014-01-04 06:50:00,
2014-01-03 22:55:00,47.9,34.7,30.04,NE,46,1.0,3.0,60,0.00,,,0.00,Weather View 32 v70,2014-01-04 06:55:00,
2014-01-03 23:00:00,47.8,34.6,30.04,NE,45,2.0,3.0,60,0.00,,,0.00,Weather View 32 v70,2014-01-04 07:00:00,
2014-01-03 23:05:00,47.7,34.5,30.05,NE,45,2.0,3.0,60,0.00,,,0.00,Weather View 32 v70,2014-01-04 07:05:00,
2014-01-03 23:10:00,47.6,34.0,30.05,NE,41,3.0,3.0,59,0.00,,,0.00,Weather View 32 v70,2014-01-04 07:10:00,
2014-01-03 23:15:00,47.7,34.0,30.04,NE,41,1.0,3.0,59,0.00,,,0.00,Weather View 32 v70,2014-01-04 07:15:00,
2014-01-03 23:20:00,47.6,34.4,30.04,NE,44,2.0,3.0,60,0.00,,,0.00,Weather View 32 v70,2014-01-04 07:20:00,
2014-01-03 23:25:00,47.3,34.1,30.04,NE,44,2.0,3.0,60,0.00,,,0.00,Weather View 32 v70,2014-01-04 07:25:00,
2014-01-03 23:30:00,47.5,33.9,30.05,NE,44,2.0,3.0,59,0.00,,,0.00,Weather View 32 v70,2014-01-04 07:30:00,
2014-01-03 23:35:00,47.6,34.0,30.05,NE,43,1.0,3.0,59,0.00,,,0.00,Weather View 32 v70,2014-01-04 07:35:00,
2014-01-03 23:40:00,47.5,33.9,30.05,NE,43,2.0,3.0,59,0.00,,,0.00,Weather View 32 v70,2014-01-04 07:40:00,
2014-01-03 23:45:00,47.3,34.1,30.05,NE,43,2.0,3.0,60,0.00,,,0.00,Weather View 32 v70,2014-01-04 07:45:00,
2014-01-03 23:50:00,47.2,34.0,30.04,NE,44,1.0,3.0,60,0.00,,,0.00,Weather View 32 v70,2014-01-04 07:50:00,
2014-01-03 23:55:00,47.1,33.9,30.04,NE,44,2.0,3.0,60,0.00,,,0.00,Weather View 32 v70,2014-01-04 07:55:00,